Terminal Aerodrome Forecast
Issued by NWS

Home | Current Version | Previous Version | Text Only | Print | Product List | Glossary On
Versions: 1 2 3 4 5 6 7 8 9 10 11 12
000
FTUS44 KEPZ 290500
TAFTCS
TAF
KTCS 290520Z 2906/3006 32005KT P6SM SKC
     FM291400 VRB04KT P6SM SKC
     FM292000 17008KT P6SM SKC
     FM300300 30006KT P6SM FEW300=

USA.gov is the U.S. government's official web portal to all federal, state and local government web resources and services.